createdAt,value
2024-01-31T00:01:46.294Z,71.90
2024-01-31T00:04:15.554Z,75.22
2024-01-31T00:06:44.594Z,63.20
2024-01-31T00:09:18.148Z,69.15
2024-01-31T00:11:46.987Z,69.90
2024-01-31T00:14:19.494Z,73.20
2024-01-31T00:16:48.358Z,65.80
2024-01-31T00:19:17.441Z,69.88
2024-01-31T00:21:46.411Z,69.03
2024-01-31T00:24:15.605Z,65.05
2024-01-31T00:26:46.550Z,67.38
2024-01-31T00:29:15.067Z,69.82
2024-01-31T00:31:43.516Z,66.15
2024-01-31T00:34:11.986Z,68.18
2024-01-31T00:36:40.334Z,70.05
2024-01-31T00:39:08.745Z,77.10
2024-01-31T00:41:37.031Z,67.35
2024-01-31T00:44:06.993Z,63.85
2024-01-31T00:46:35.439Z,57.50
2024-01-31T00:49:06.287Z,67.20
2024-01-31T00:51:34.746Z,64.50
2024-01-31T00:54:03.104Z,61.83
2024-01-31T00:56:31.483Z,55.78
2024-01-31T00:59:01.909Z,63.25
2024-01-31T01:01:31.717Z,63.33
2024-01-31T01:04:00.353Z,63.20
2024-01-31T01:06:28.758Z,68.05
2024-01-31T01:08:57.217Z,64.40
2024-01-31T01:11:25.534Z,65.28
2024-01-31T01:13:53.952Z,57.63
2024-01-31T01:16:22.369Z,62.95
2024-01-31T01:18:52.071Z,69.78
2024-01-31T01:21:20.507Z,56.30
2024-01-31T01:23:49.819Z,66.07
2024-01-31T01:26:19.246Z,63.90
2024-01-31T01:28:47.692Z,65.07
2024-01-31T01:31:16.174Z,63.10
2024-01-31T01:33:44.750Z,63.47
2024-01-31T01:36:14.529Z,63.13
2024-01-31T01:38:43.114Z,60.50
2024-01-31T01:41:11.662Z,59.88
2024-01-31T01:43:44.033Z,57.70
2024-01-31T01:46:15.854Z,62.60
2024-01-31T01:48:45.781Z,65.38
2024-01-31T01:51:20.025Z,73.32
2024-01-31T01:53:52.797Z,75.07
2024-01-31T01:56:22.811Z,89.65
2024-01-31T01:58:53.779Z,77.95
2024-01-31T02:01:23.787Z,77.50
2024-01-31T02:03:57.792Z,85.57
2024-01-31T02:06:28.719Z,77.43
2024-01-31T02:08:58.156Z,82.72
2024-01-31T02:11:27.416Z,84.63
2024-01-31T02:13:56.613Z,77.70
2024-01-31T02:16:25.762Z,75.68
2024-01-31T02:18:54.800Z,84.22
2024-01-31T02:21:27.038Z,76.38
2024-01-31T02:24:00.346Z,79.80
2024-01-31T02:26:29.454Z,89.57
2024-01-31T02:29:00.707Z,73.57
2024-01-31T02:31:29.682Z,73.13
2024-01-31T02:33:58.777Z,76.55
2024-01-31T02:36:28.008Z,76.53
2024-01-31T02:38:58.438Z,75.35
2024-01-31T02:41:27.270Z,71.55
2024-01-31T02:43:56.448Z,74.65
2024-01-31T02:46:27.323Z,69.80
2024-01-31T02:48:56.161Z,76.43
2024-01-31T02:51:24.604Z,76.68
2024-01-31T02:53:53.087Z,82.57
2024-01-31T02:56:22.847Z,76.32
2024-01-31T02:58:51.181Z,75.03
2024-01-31T03:01:19.583Z,72.53
2024-01-31T03:03:48.245Z,73.50
2024-01-31T03:06:16.682Z,78.15
2024-01-31T03:08:45.178Z,72.65
2024-01-31T03:11:13.506Z,74.65
2024-01-31T03:13:43.450Z,67.00
2024-01-31T03:16:11.902Z,79.32
2024-01-31T03:18:40.333Z,72.22
2024-01-31T03:21:09.238Z,71.60
2024-01-31T03:23:37.583Z,72.93
2024-01-31T03:26:05.076Z,67.00
2024-01-31T03:28:34.131Z,79.10
2024-01-31T03:31:03.944Z,66.82
2024-01-31T03:33:32.422Z,72.47
2024-01-31T03:36:00.811Z,73.75
2024-01-31T03:38:29.183Z,73.43
2024-01-31T03:40:57.540Z,77.93
2024-01-31T03:43:25.963Z,77.47
2024-01-31T03:45:54.378Z,59.88
2024-01-31T03:48:24.179Z,65.53
2024-01-31T03:50:52.573Z,56.75
2024-01-31T03:53:21.054Z,65.53
2024-01-31T03:55:49.549Z,60.13
2024-01-31T03:58:17.922Z,56.60
2024-01-31T04:00:46.444Z,67.38
2024-01-31T04:03:14.941Z,66.40
2024-01-31T04:05:45.052Z,70.07
2024-01-31T04:08:13.444Z,63.75
2024-01-31T04:10:42.001Z,62.28
2024-01-31T04:13:10.579Z,73.68
2024-01-31T04:15:38.934Z,59.75
2024-01-31T04:18:09.119Z,76.00
2024-01-31T04:20:39.936Z,61.60
2024-01-31T04:23:10.144Z,64.65
2024-01-31T04:25:38.536Z,65.47
2024-01-31T04:28:07.384Z,72.88
2024-01-31T04:30:35.825Z,63.00
2024-01-31T04:33:04.615Z,69.07
2024-01-31T04:35:33.442Z,74.53
2024-01-31T04:38:01.842Z,72.53
2024-01-31T04:40:31.816Z,68.85
2024-01-31T04:43:00.284Z,59.47
2024-01-31T04:45:28.557Z,64.25
2024-01-31T04:47:56.977Z,64.07
2024-01-31T04:50:25.597Z,57.60
2024-01-31T04:52:54.520Z,59.28
2024-01-31T04:55:22.909Z,65.22
2024-01-31T04:57:52.657Z,58.75
2024-01-31T05:00:25.067Z,65.65
2024-01-31T05:02:53.441Z,52.67
2024-01-31T05:05:22.193Z,73.70
2024-01-31T05:07:50.758Z,64.97
2024-01-31T05:10:19.899Z,67.07
2024-01-31T05:12:48.287Z,59.10
2024-01-31T05:15:18.009Z,77.10
2024-01-31T05:17:46.369Z,80.30
2024-01-31T05:20:14.929Z,89.22
2024-01-31T05:22:44.006Z,89.60
2024-01-31T05:25:12.635Z,86.60
2024-01-31T05:27:41.117Z,84.70
2024-01-31T05:30:10.428Z,76.93
2024-01-31T05:32:40.266Z,74.90
2024-01-31T05:35:09.774Z,72.32
2024-01-31T05:37:40.372Z,71.88
2024-01-31T05:40:13.212Z,71.60
2024-01-31T05:42:41.622Z,75.65
2024-01-31T05:45:10.951Z,72.68
2024-01-31T05:47:40.732Z,74.00
2024-01-31T05:50:11.244Z,74.07
2024-01-31T05:52:39.914Z,74.30
2024-01-31T05:55:08.908Z,88.25
2024-01-31T05:57:37.284Z,90.60
2024-01-31T06:00:13.459Z,96.57
2024-01-31T06:02:45.738Z,93.22
2024-01-31T06:05:14.917Z,85.78
2024-01-31T06:07:43.480Z,84.30
2024-01-31T06:10:12.023Z,94.55
2024-01-31T06:12:40.326Z,93.95
2024-01-31T06:15:10.192Z,82.43
2024-01-31T06:17:39.529Z,100.30
2024-01-31T06:20:11.703Z,91.07
2024-01-31T06:22:40.257Z,98.13
2024-01-31T06:25:09.368Z,97.15
2024-01-31T06:27:38.829Z,96.68
2024-01-31T06:30:08.725Z,93.60
2024-01-31T06:32:42.177Z,91.43
2024-01-31T06:35:12.156Z,107.20
2024-01-31T06:37:40.656Z,98.22
2024-01-31T06:40:10.428Z,107.78
2024-01-31T06:42:38.796Z,99.28
2024-01-31T06:45:07.695Z,102.05
2024-01-31T06:47:36.063Z,101.85
2024-01-31T06:50:04.807Z,95.65
2024-01-31T06:52:34.730Z,106.60
2024-01-31T06:55:03.431Z,122.57
2024-01-31T06:57:33.068Z,109.70
2024-01-31T07:00:01.532Z,106.90
2024-01-31T07:02:29.853Z,99.47
2024-01-31T07:04:58.190Z,89.78
2024-01-31T07:07:26.599Z,82.55
2024-01-31T07:09:56.347Z,93.68
2024-01-31T07:12:24.800Z,81.63
2024-01-31T07:14:53.363Z,84.25
2024-01-31T07:17:21.717Z,81.55
2024-01-31T07:19:50.023Z,78.65
2024-01-31T07:22:18.462Z,76.35
2024-01-31T07:24:46.901Z,83.53
2024-01-31T07:27:16.696Z,80.50
2024-01-31T07:29:47.484Z,78.55
2024-01-31T07:32:16.041Z,113.80
2024-01-31T07:34:44.386Z,120.32
2024-01-31T07:37:12.734Z,106.93
2024-01-31T07:39:41.108Z,107.65
2024-01-31T07:42:10.105Z,117.88
2024-01-31T07:44:39.769Z,104.25
2024-01-31T07:47:08.166Z,95.07
2024-01-31T07:49:36.618Z,83.38
2024-01-31T07:52:05.499Z,98.97
2024-01-31T07:54:33.818Z,98.05
2024-01-31T07:57:02.228Z,89.43
2024-01-31T07:59:30.558Z,83.03
2024-01-31T08:02:00.355Z,76.07
2024-01-31T08:04:28.927Z,80.95
2024-01-31T08:06:57.276Z,90.90
2024-01-31T08:09:25.729Z,80.97
2024-01-31T08:11:54.119Z,84.43
2024-01-31T08:14:22.570Z,79.78
2024-01-31T08:16:52.633Z,81.57
2024-01-31T08:19:22.623Z,87.97
2024-01-31T08:21:51.040Z,90.43
2024-01-31T08:24:19.874Z,91.03
2024-01-31T08:26:48.337Z,101.50
2024-01-31T08:29:23.502Z,101.40
2024-01-31T08:31:56.212Z,98.65
2024-01-31T08:34:29.637Z,99.95
2024-01-31T08:37:03.793Z,80.07
2024-01-31T08:39:32.640Z,91.95
2024-01-31T08:42:02.505Z,86.45
2024-01-31T08:44:30.936Z,78.55
2024-01-31T08:47:10.847Z,82.70
2024-01-31T08:49:49.817Z,82.70
2024-01-31T08:52:19.190Z,78.90
2024-01-31T08:54:48.473Z,76.50
2024-01-31T08:57:21.993Z,90.07
2024-01-31T08:59:52.776Z,82.38
2024-01-31T09:02:21.696Z,75.72
2024-01-31T09:04:56.762Z,77.70
2024-01-31T09:07:26.657Z,70.05
2024-01-31T09:09:56.616Z,67.70
2024-01-31T09:12:26.790Z,76.25
2024-01-31T09:14:55.328Z,54.28
2024-01-31T09:17:26.945Z,60.13
2024-01-31T09:19:57.012Z,57.67
2024-01-31T09:22:26.269Z,57.00
2024-01-31T09:24:54.614Z,51.38
2024-01-31T09:27:23.041Z,46.38
2024-01-31T09:29:51.692Z,41.25
2024-01-31T09:32:20.105Z,36.63
2024-01-31T09:34:48.590Z,39.58
2024-01-31T09:37:18.412Z,36.80
2024-01-31T09:39:46.832Z,40.88
2024-01-31T09:42:15.222Z,45.72
2024-01-31T09:44:43.727Z,45.70
2024-01-31T09:47:13.625Z,43.03
2024-01-31T09:49:42.018Z,39.40
2024-01-31T09:52:14.283Z,31.98
2024-01-31T09:54:46.645Z,28.88
2024-01-31T09:57:15.398Z,31.90
2024-01-31T09:59:44.063Z,31.27
2024-01-31T10:02:12.686Z,25.52
2024-01-31T10:04:41.194Z,27.05
2024-01-31T10:07:10.111Z,32.75
2024-01-31T10:09:38.489Z,410.27
2024-01-31T10:12:08.979Z,188.27
2024-01-31T10:14:37.339Z,36.63
2024-01-31T10:17:05.850Z,28.92
2024-01-31T10:19:34.551Z,27.20
2024-01-31T10:22:02.961Z,29.00
2024-01-31T10:24:31.523Z,27.55
2024-01-31T10:26:59.973Z,30.60
2024-01-31T10:29:31.142Z,30.02
2024-01-31T10:32:00.705Z,33.75
2024-01-31T10:34:36.669Z,32.03
2024-01-31T10:37:46.513Z,32.97
2024-01-31T10:40:02.664Z,32.13
2024-01-31T10:42:32.006Z,33.45
2024-01-31T10:45:01.828Z,32.58
2024-01-31T10:47:30.454Z,30.83
2024-01-31T10:49:59.816Z,34.20
2024-01-31T10:52:33.586Z,40.65
2024-01-31T10:55:06.972Z,36.03
2024-01-31T10:57:38.972Z,36.33
2024-01-31T11:00:13.078Z,37.25
2024-01-31T11:02:41.712Z,32.53
2024-01-31T11:05:10.451Z,30.35
2024-01-31T11:07:46.881Z,27.60
2024-01-31T11:10:19.308Z,32.97
2024-01-31T11:12:58.839Z,24.13
2024-01-31T11:15:32.679Z,23.15
2024-01-31T11:18:10.651Z,18.42
2024-01-31T11:20:41.770Z,22.27
2024-01-31T11:23:15.476Z,22.17
2024-01-31T11:25:44.450Z,23.35
2024-01-31T11:28:13.862Z,17.83
2024-01-31T11:30:43.987Z,23.20
2024-01-31T11:33:12.622Z,21.77
2024-01-31T11:35:41.171Z,23.20
2024-01-31T11:38:10.415Z,21.20
2024-01-31T11:40:38.781Z,23.17
2024-01-31T11:43:07.968Z,22.73
2024-01-31T11:45:36.311Z,19.10
2024-01-31T11:48:06.973Z,20.75
2024-01-31T11:50:35.830Z,25.25
2024-01-31T11:53:04.874Z,25.90
2024-01-31T11:55:35.339Z,24.85
2024-01-31T11:58:03.800Z,21.52
2024-01-31T12:00:32.910Z,18.98
2024-01-31T12:03:01.605Z,25.13
2024-01-31T12:05:31.475Z,20.50
2024-01-31T12:08:00.935Z,20.23
2024-01-31T12:10:30.446Z,20.23
2024-01-31T12:13:02.260Z,20.45
2024-01-31T12:15:32.582Z,27.60
2024-01-31T12:18:02.589Z,21.35
2024-01-31T12:20:32.920Z,19.23
2024-01-31T12:23:01.293Z,29.42
2024-01-31T12:25:29.768Z,23.65
2024-01-31T12:27:58.180Z,20.50
2024-01-31T12:30:26.706Z,24.52
2024-01-31T12:32:55.173Z,24.27
2024-01-31T12:35:24.265Z,22.27
2024-01-31T12:37:54.152Z,22.05
2024-01-31T12:40:22.485Z,27.27
2024-01-31T12:42:51.574Z,22.55
2024-01-31T12:45:20.244Z,20.08
2024-01-31T12:47:50.880Z,22.50
2024-01-31T12:50:19.598Z,24.40
2024-01-31T12:52:48.780Z,20.20
2024-01-31T12:55:18.624Z,20.98
2024-01-31T12:57:47.571Z,21.85
2024-01-31T13:00:17.089Z,18.63
2024-01-31T13:02:45.494Z,16.92
2024-01-31T13:05:14.285Z,24.30
2024-01-31T13:07:43.279Z,20.83
2024-01-31T13:10:12.229Z,24.17
2024-01-31T13:12:42.010Z,21.30
2024-01-31T13:15:11.245Z,22.90
2024-01-31T13:17:39.831Z,22.42
2024-01-31T13:20:10.587Z,22.58
2024-01-31T13:22:39.170Z,22.60
2024-01-31T13:25:08.918Z,22.08
2024-01-31T13:27:37.243Z,28.17
2024-01-31T13:30:12.672Z,23.95
2024-01-31T13:32:41.888Z,16.83
2024-01-31T13:35:10.927Z,23.58
2024-01-31T13:37:39.243Z,26.02
2024-01-31T13:40:10.088Z,24.27
2024-01-31T13:42:38.609Z,23.52
2024-01-31T13:45:09.439Z,26.25
2024-01-31T13:47:38.593Z,23.27
2024-01-31T13:50:08.319Z,24.85
2024-01-31T13:52:36.676Z,21.73
2024-01-31T13:55:05.128Z,22.45
2024-01-31T13:57:33.522Z,22.35
2024-01-31T14:00:07.900Z,23.67
2024-01-31T14:02:39.186Z,27.77
2024-01-31T14:05:10.925Z,26.38
2024-01-31T14:07:40.546Z,26.95
2024-01-31T14:10:09.661Z,27.02
2024-01-31T14:12:38.867Z,25.50
2024-01-31T14:15:08.312Z,26.98
2024-01-31T14:17:38.799Z,24.08
2024-01-31T14:20:08.930Z,31.83
2024-01-31T14:22:56.562Z,25.33
2024-01-31T14:25:28.545Z,25.10
2024-01-31T14:27:59.804Z,24.02
2024-01-31T14:30:31.465Z,28.30
2024-01-31T14:33:03.701Z,43.72
2024-01-31T14:35:46.141Z,30.98
2024-01-31T14:38:15.329Z,27.13
2024-01-31T14:40:53.147Z,27.98
2024-01-31T14:43:23.093Z,28.95
2024-01-31T14:45:52.408Z,24.40
2024-01-31T14:48:26.622Z,25.88
2024-01-31T14:51:03.158Z,27.52
2024-01-31T14:53:33.101Z,27.73
2024-01-31T14:56:16.014Z,22.13
2024-01-31T14:58:49.157Z,30.50
2024-01-31T15:05:43.974Z,44.40
2024-01-31T15:10:51.610Z,69.95
2024-01-31T15:13:24.229Z,83.22
2024-01-31T15:16:15.728Z,99.63
2024-01-31T15:18:52.644Z,99.80
2024-01-31T15:21:25.406Z,115.50
2024-01-31T15:24:09.119Z,122.55
2024-01-31T15:26:40.562Z,140.15
2024-01-31T15:29:15.022Z,100.40
2024-01-31T15:31:44.308Z,58.83
2024-01-31T15:34:15.315Z,49.22
2024-01-31T15:36:52.923Z,41.38
2024-01-31T15:39:22.934Z,38.38
2024-01-31T15:41:51.577Z,37.97
2024-01-31T15:44:22.660Z,38.83
2024-01-31T15:46:51.314Z,42.03
2024-01-31T15:49:20.094Z,40.20
2024-01-31T15:51:50.301Z,37.90
2024-01-31T15:54:19.856Z,36.13
2024-01-31T15:56:48.883Z,38.72
2024-01-31T15:59:17.363Z,37.08
2024-01-31T16:01:45.839Z,44.90
2024-01-31T16:04:14.321Z,43.28
2024-01-31T16:06:53.138Z,46.70
2024-01-31T16:09:22.054Z,44.70
2024-01-31T16:11:50.714Z,41.60
2024-01-31T16:14:19.779Z,48.58
2024-01-31T16:16:48.160Z,44.95
2024-01-31T16:19:18.405Z,43.90
2024-01-31T16:21:49.071Z,48.92
2024-01-31T16:24:19.127Z,48.50
2024-01-31T16:26:47.519Z,45.33
2024-01-31T16:29:15.938Z,41.38
2024-01-31T16:31:45.039Z,44.55
2024-01-31T16:34:17.380Z,53.47
2024-01-31T16:36:46.055Z,49.08
2024-01-31T16:39:14.616Z,42.95
2024-01-31T16:41:44.373Z,47.88
2024-01-31T16:44:12.767Z,45.53
2024-01-31T16:46:41.457Z,48.75
2024-01-31T16:49:09.860Z,50.47
2024-01-31T16:51:38.359Z,51.45
2024-01-31T16:54:07.409Z,54.40
2024-01-31T16:56:35.882Z,59.67
2024-01-31T16:59:05.687Z,52.67
2024-01-31T17:01:34.121Z,50.13
2024-01-31T17:04:02.770Z,57.33
2024-01-31T17:06:31.612Z,50.03
2024-01-31T17:09:00.276Z,47.85
2024-01-31T17:11:31.661Z,54.20
2024-01-31T17:14:00.426Z,56.17
2024-01-31T17:16:30.493Z,52.35
2024-01-31T17:18:59.259Z,64.00
2024-01-31T17:21:27.938Z,66.82
2024-01-31T17:23:56.533Z,71.40
2024-01-31T17:26:25.323Z,64.65
2024-01-31T17:28:53.840Z,69.97
2024-01-31T17:31:22.602Z,70.85
2024-01-31T17:33:55.298Z,67.35
2024-01-31T17:36:25.848Z,73.95
2024-01-31T17:38:54.648Z,59.40
2024-01-31T17:41:23.083Z,60.50
2024-01-31T17:43:51.358Z,65.63
2024-01-31T17:46:23.296Z,58.60
2024-01-31T17:48:53.094Z,59.63
2024-01-31T17:51:21.519Z,56.38
2024-01-31T17:53:49.846Z,57.38
2024-01-31T17:56:22.826Z,56.60
2024-01-31T17:58:52.042Z,59.67
2024-01-31T18:01:20.342Z,51.33
2024-01-31T18:03:50.947Z,53.67
2024-01-31T18:06:21.529Z,53.40
2024-01-31T18:08:50.810Z,58.83
2024-01-31T18:11:19.580Z,57.00
2024-01-31T18:13:51.568Z,53.40
2024-01-31T18:16:21.325Z,47.95
2024-01-31T18:18:50.563Z,64.10
2024-01-31T18:21:21.066Z,44.55
2024-01-31T18:23:54.187Z,50.75
2024-01-31T18:26:24.062Z,50.78
2024-01-31T18:28:53.446Z,50.95
2024-01-31T18:31:22.480Z,47.47
2024-01-31T18:33:52.905Z,49.03
2024-01-31T18:36:24.027Z,52.47
2024-01-31T18:38:53.815Z,52.13
2024-01-31T18:41:23.584Z,56.60
2024-01-31T18:43:52.605Z,55.35
2024-01-31T18:46:21.564Z,57.28
2024-01-31T18:48:51.917Z,63.53
2024-01-31T18:51:22.776Z,62.17
2024-01-31T18:53:50.734Z,64.75
2024-01-31T18:56:20.115Z,81.68
2024-01-31T18:58:49.118Z,68.55
2024-01-31T19:01:19.553Z,68.53
2024-01-31T19:03:49.448Z,69.25
2024-01-31T19:06:19.902Z,64.75
2024-01-31T19:08:50.458Z,70.22
2024-01-31T19:11:23.243Z,66.53
2024-01-31T19:13:55.667Z,65.57
2024-01-31T19:16:25.090Z,70.55
2024-01-31T19:18:54.161Z,71.30
2024-01-31T19:21:24.225Z,75.82
2024-01-31T19:23:55.134Z,80.15
2024-01-31T19:26:26.928Z,78.03
2024-01-31T19:28:56.380Z,74.05
2024-01-31T19:31:25.327Z,85.28
2024-01-31T19:33:54.817Z,91.10
2024-01-31T19:36:25.789Z,100.10
2024-01-31T19:38:57.179Z,90.30
2024-01-31T19:41:27.684Z,101.40
2024-01-31T19:43:58.312Z,114.95
2024-01-31T19:46:27.956Z,128.35
2024-01-31T19:48:58.130Z,125.53
2024-01-31T19:51:29.557Z,158.23
2024-01-31T19:54:01.422Z,193.32
2024-01-31T19:56:31.678Z,177.07
2024-01-31T19:59:01.279Z,171.88
2024-01-31T20:01:31.113Z,185.85
2024-01-31T20:04:01.915Z,186.35
2024-01-31T20:06:35.656Z,193.73
2024-01-31T20:09:08.940Z,196.32
2024-01-31T20:11:39.257Z,181.23
2024-01-31T20:14:10.608Z,217.88
2024-01-31T20:16:40.576Z,195.82
2024-01-31T20:19:11.397Z,208.18
2024-01-31T20:21:45.762Z,192.38
2024-01-31T20:24:17.727Z,222.27
2024-01-31T20:26:47.866Z,228.63
2024-01-31T20:29:17.667Z,226.65
2024-01-31T20:31:47.935Z,212.93
2024-01-31T20:34:19.068Z,219.38
2024-01-31T20:36:50.297Z,209.98
2024-01-31T20:39:22.265Z,230.05
2024-01-31T20:41:52.283Z,212.33
2024-01-31T20:44:22.314Z,216.75
2024-01-31T20:46:57.788Z,211.75
2024-01-31T20:49:28.429Z,206.60
2024-01-31T20:51:58.523Z,198.32
2024-01-31T20:54:29.394Z,224.52
2024-01-31T20:56:58.803Z,214.73
2024-01-31T20:59:28.075Z,235.45
2024-01-31T21:01:57.663Z,205.02
2024-01-31T21:04:28.921Z,169.52
2024-01-31T21:06:58.956Z,150.05
2024-01-31T21:09:29.574Z,144.68
2024-01-31T21:11:58.898Z,166.95
2024-01-31T21:14:28.854Z,162.18
2024-01-31T21:17:00.058Z,155.02
2024-01-31T21:19:29.104Z,167.25
2024-01-31T21:21:59.617Z,166.45
2024-01-31T21:24:30.208Z,157.20
2024-01-31T21:26:59.257Z,169.02
2024-01-31T21:29:28.271Z,149.27
2024-01-31T21:31:56.801Z,154.35
2024-01-31T21:34:25.225Z,155.07
2024-01-31T21:36:53.683Z,156.07
2024-01-31T21:39:21.999Z,159.63
2024-01-31T21:41:52.003Z,141.65
2024-01-31T21:44:20.363Z,150.05
2024-01-31T21:46:49.124Z,130.57
2024-01-31T21:49:17.585Z,125.53
2024-01-31T21:51:46.126Z,138.90
2024-01-31T21:54:14.585Z,132.10
2024-01-31T21:56:43.075Z,114.72
2024-01-31T21:59:12.840Z,116.65
2024-01-31T22:01:41.123Z,108.05
2024-01-31T22:04:13.412Z,102.38
2024-01-31T22:06:47.878Z,92.43
2024-01-31T22:09:16.328Z,81.75
2024-01-31T22:11:44.769Z,81.40
2024-01-31T22:14:14.740Z,79.13
2024-01-31T22:16:43.227Z,146.30
2024-01-31T22:19:11.996Z,114.18
2024-01-31T22:21:42.767Z,104.95
2024-01-31T22:24:11.462Z,88.05
2024-01-31T22:26:41.570Z,95.57
2024-01-31T22:29:10.222Z,108.57
2024-01-31T22:31:45.467Z,124.20
2024-01-31T22:34:14.204Z,118.95
2024-01-31T22:36:42.894Z,129.27
2024-01-31T22:39:18.312Z,116.45
2024-01-31T22:41:47.803Z,113.88
2024-01-31T22:44:16.129Z,115.38
2024-01-31T22:46:46.308Z,121.65
2024-01-31T22:49:15.352Z,114.88
2024-01-31T22:51:44.289Z,106.72
2024-01-31T22:54:13.045Z,101.00
2024-01-31T22:56:41.976Z,104.03
2024-01-31T22:59:10.865Z,116.05
2024-01-31T23:01:40.639Z,122.55
2024-01-31T23:04:10.839Z,110.32
2024-01-31T23:06:39.997Z,114.53
2024-01-31T23:09:09.628Z,111.07
2024-01-31T23:11:38.573Z,117.93
2024-01-31T23:14:08.039Z,116.57
2024-01-31T23:16:37.044Z,101.72
2024-01-31T23:19:05.959Z,114.20
2024-01-31T23:21:35.991Z,109.85
2024-01-31T23:24:05.057Z,111.43
2024-01-31T23:26:34.906Z,111.65
2024-01-31T23:29:06.748Z,109.72
2024-01-31T23:31:35.560Z,108.27
2024-01-31T23:34:04.181Z,100.35
2024-01-31T23:36:32.690Z,97.00
2024-01-31T23:39:03.176Z,89.75
2024-01-31T23:41:31.796Z,89.10
2024-01-31T23:44:00.527Z,98.82
2024-01-31T23:46:29.213Z,91.68
2024-01-31T23:48:58.076Z,80.38
2024-01-31T23:51:26.675Z,87.38
2024-01-31T23:53:55.264Z,87.07
2024-01-31T23:56:25.661Z,85.25
2024-01-31T23:58:54.804Z,87.00
